CheckWX is a tool to help pilots better visualize weather data.  It is not intended as a substitute for an official pre-flight weather briefing.

13:58:02 UTC

LIBA TAF
Amendola Airport
Foggia, Italy
TAF LIBA 210500Z 2106/2115 29012KT CAVOK BECMG 2112/2114 09012KT 9999 FEW030

Sep-21@
06:00 UTC

Sep-21 @ 06:00 UTC

Sep-21@
12:00 UTC

Sep-21 @ 12:00 UTC

TAF LIBA 210500Z 2106/2115 29012KT CAVOK

Expired

Wind
  • 290° at 12 KTS
Conditions
No significant weather
Cloud Levels
  • No significant clouds

Sep-21@
12:00 UTC

Sep-21 @ 12:00 UTC

Sep-21@
15:00 UTC

Sep-21 @ 15:00 UTC

BECMG 2112/2114 09012KT 9999 FEW030

Becoming

Becoming Conditions expected by Sat, Sep 21, 2019 @ 14:00 UTC

Wind
  • 090° at 12 KTS
Conditions
No significant weather
Cloud Levels
  • Few at 3,000' AGL